sensor_id;sensor_type;location;lat;lon;timestamp;pressure;altitude;pressure_sealevel;temperature;humidity
8705;BME280;4389;41.932;25.904;2024-01-30T00:01:17;-16097.88;;;1.12;96.89
8705;BME280;4389;41.932;25.904;2024-01-30T00:03:44;-16095.19;;;1.02;96.95
8705;BME280;4389;41.932;25.904;2024-01-30T00:06:12;-16097.88;;;1.12;97.19
8705;BME280;4389;41.932;25.904;2024-01-30T00:08:40;-16101.22;;;1.25;97.01
8705;BME280;4389;41.932;25.904;2024-01-30T00:11:07;-16100.53;;;1.22;96.72
8705;BME280;4389;41.932;25.904;2024-01-30T00:13:34;-16101.34;;;1.25;97.09
8705;BME280;4389;41.932;25.904;2024-01-30T00:16:01;-16105.09;;;1.39;97.06
8705;BME280;4389;41.932;25.904;2024-01-30T00:18:29;-16107.22;;;1.47;96.19
8705;BME280;4389;41.932;25.904;2024-01-30T00:20:56;-16109.34;;;1.55;95.84
8705;BME280;4389;41.932;25.904;2024-01-30T00:23:24;-16104.53;;;1.37;95.22
8705;BME280;4389;41.932;25.904;2024-01-30T00:25:51;-16103.22;;;1.32;96.52
8705;BME280;4389;41.932;25.904;2024-01-30T00:28:17;-16108.16;;;1.51;96.44
8705;BME280;4389;41.932;25.904;2024-01-30T00:30:45;-16111.09;;;1.62;96.23
8705;BME280;4389;41.932;25.904;2024-01-30T00:33:12;-16112.28;;;1.66;95.35
8705;BME280;4389;41.932;25.904;2024-01-30T00:35:39;-16113.09;;;1.69;94.89
8705;BME280;4389;41.932;25.904;2024-01-30T00:38:05;-16114.81;;;1.76;94.56
8705;BME280;4389;41.932;25.904;2024-01-30T00:40:34;-16117.34;;;1.85;94.91
8705;BME280;4389;41.932;25.904;2024-01-30T00:43:01;-16116.56;;;1.82;94.31
8705;BME280;4389;41.932;25.904;2024-01-30T00:45:28;-16112.56;;;1.67;94.72
8705;BME280;4389;41.932;25.904;2024-01-30T00:47:55;-16109.63;;;1.56;95.33
8705;BME280;4389;41.932;25.904;2024-01-30T00:50:22;-16111.50;;;1.63;95.54
8705;BME280;4389;41.932;25.904;2024-01-30T00:52:48;-16112.03;;;1.65;95.95
8705;BME280;4389;41.932;25.904;2024-01-30T00:55:15;-16114.69;;;1.75;96.15
8705;BME280;4389;41.932;25.904;2024-01-30T00:57:43;-16112.94;;;1.69;97.04
8705;BME280;4389;41.932;25.904;2024-01-30T01:00:12;-16111.22;;;1.62;97.75
8705;BME280;4389;41.932;25.904;2024-01-30T01:02:41;-16108.69;;;1.53;96.89
8705;BME280;4389;41.932;25.904;2024-01-30T01:05:08;-16107.75;;;1.49;96.21
8705;BME280;4389;41.932;25.904;2024-01-30T01:07:35;-16112.03;;;1.65;95.55
8705;BME280;4389;41.932;25.904;2024-01-30T01:10:02;-16111.75;;;1.64;93.97
8705;BME280;4389;41.932;25.904;2024-01-30T01:12:29;-16112.41;;;1.67;93.25
8705;BME280;4389;41.932;25.904;2024-01-30T01:14:57;-16111.22;;;1.62;93.73
8705;BME280;4389;41.932;25.904;2024-01-30T01:17:24;-16111.34;;;1.63;93.44
8705;BME280;4389;41.932;25.904;2024-01-30T01:19:51;-16113.34;;;1.70;93.37
8705;BME280;4389;41.932;25.904;2024-01-30T01:22:18;-16111.50;;;1.63;92.98
8705;BME280;4389;41.932;25.904;2024-01-30T01:24:45;-16114.03;;;1.73;92.09
8705;BME280;4389;41.932;25.904;2024-01-30T01:27:11;-16115.34;;;1.78;91.94
8705;BME280;4389;41.932;25.904;2024-01-30T01:29:38;-16119.50;;;1.93;90.58
8705;BME280;4389;41.932;25.904;2024-01-30T01:32:06;-16114.81;;;1.76;90.59
8705;BME280;4389;41.932;25.904;2024-01-30T01:34:33;-16112.69;;;1.68;90.82
8705;BME280;4389;41.932;25.904;2024-01-30T01:37:00;-16112.69;;;1.68;91.11
8705;BME280;4389;41.932;25.904;2024-01-30T01:39:27;-16114.81;;;1.76;90.62
8705;BME280;4389;41.932;25.904;2024-01-30T01:41:54;-16113.34;;;1.70;90.39
8705;BME280;4389;41.932;25.904;2024-01-30T01:44:20;-16112.94;;;1.69;90.29
8705;BME280;4389;41.932;25.904;2024-01-30T01:46:47;-16113.88;;;1.72;89.58
8705;BME280;4389;41.932;25.904;2024-01-30T01:49:16;-16115.63;;;1.79;89.49
8705;BME280;4389;41.932;25.904;2024-01-30T01:51:43;-16114.44;;;1.74;89.31
8705;BME280;4389;41.932;25.904;2024-01-30T01:54:11;-16109.88;;;1.57;89.79
8705;BME280;4389;41.932;25.904;2024-01-30T01:56:38;-16108.81;;;1.53;90.88
8705;BME280;4389;41.932;25.904;2024-01-30T01:59:07;-16108.94;;;1.54;90.59
8705;BME280;4389;41.932;25.904;2024-01-30T02:01:34;-16108.41;;;1.52;90.61
8705;BME280;4389;41.932;25.904;2024-01-30T02:04:02;-16108.94;;;1.54;90.56
8705;BME280;4389;41.932;25.904;2024-01-30T02:06:32;-16109.34;;;1.55;90.66
8705;BME280;4389;41.932;25.904;2024-01-30T02:08:59;-16109.22;;;1.55;89.90
8705;BME280;4389;41.932;25.904;2024-01-30T02:11:26;-16109.34;;;1.55;89.55
8705;BME280;4389;41.932;25.904;2024-01-30T02:13:54;-16108.94;;;1.54;89.47
8705;BME280;4389;41.932;25.904;2024-01-30T02:16:23;-16110.94;;;1.61;88.96
8705;BME280;4389;41.932;25.904;2024-01-30T02:18:49;-16112.56;;;1.67;87.93
8705;BME280;4389;41.932;25.904;2024-01-30T02:21:18;-16114.03;;;1.73;87.59
8705;BME280;4389;41.932;25.904;2024-01-30T02:23:46;-16113.88;;;1.72;87.27
8705;BME280;4389;41.932;25.904;2024-01-30T02:26:13;-16115.22;;;1.77;87.46
8705;BME280;4389;41.932;25.904;2024-01-30T02:28:40;-16116.16;;;1.81;86.73
8705;BME280;4389;41.932;25.904;2024-01-30T02:31:07;-16116.97;;;1.84;87.01
8705;BME280;4389;41.932;25.904;2024-01-30T02:33:34;-16118.16;;;1.88;87.14
8705;BME280;4389;41.932;25.904;2024-01-30T02:36:01;-16118.16;;;1.88;87.19
8705;BME280;4389;41.932;25.904;2024-01-30T02:38:29;-16118.97;;;1.91;87.01
8705;BME280;4389;41.932;25.904;2024-01-30T02:40:57;-16119.22;;;1.92;87.37
8705;BME280;4389;41.932;25.904;2024-01-30T02:43:24;-16120.03;;;1.95;86.73
8705;BME280;4389;41.932;25.904;2024-01-30T02:45:51;-16120.16;;;1.96;87.09
8705;BME280;4389;41.932;25.904;2024-01-30T02:48:18;-16119.38;;;1.93;87.74
8705;BME280;4389;41.932;25.904;2024-01-30T02:50:45;-16118.69;;;1.90;87.93
8705;BME280;4389;41.932;25.904;2024-01-30T02:53:12;-16119.75;;;1.94;87.83
8705;BME280;4389;41.932;25.904;2024-01-30T02:55:40;-16119.22;;;1.92;88.52
8705;BME280;4389;41.932;25.904;2024-01-30T02:58:07;-16118.44;;;1.89;88.73
8705;BME280;4389;41.932;25.904;2024-01-30T03:00:34;-16119.75;;;1.94;88.40
8705;BME280;4389;41.932;25.904;2024-01-30T03:03:01;-16120.56;;;1.97;88.39
8705;BME280;4389;41.932;25.904;2024-01-30T03:05:27;-16122.03;;;2.03;88.23
8705;BME280;4389;41.932;25.904;2024-01-30T03:07:54;-16122.69;;;2.05;88.14
8705;BME280;4389;41.932;25.904;2024-01-30T03:10:21;-16122.97;;;2.06;88.22
8705;BME280;4389;41.932;25.904;2024-01-30T03:12:49;-16123.50;;;2.08;87.98
8705;BME280;4389;41.932;25.904;2024-01-30T03:15:16;-16123.50;;;2.08;88.69
8705;BME280;4389;41.932;25.904;2024-01-30T03:17:43;-16122.28;;;2.04;88.98
8705;BME280;4389;41.932;25.904;2024-01-30T03:20:11;-16121.91;;;2.02;89.33
8705;BME280;4389;41.932;25.904;2024-01-30T03:22:38;-16121.75;;;2.02;89.68
8705;BME280;4389;41.932;25.904;2024-01-30T03:25:05;-16123.91;;;2.10;89.25
8705;BME280;4389;41.932;25.904;2024-01-30T03:27:32;-16122.28;;;2.04;89.60
8705;BME280;4389;41.932;25.904;2024-01-30T03:30:00;-16120.97;;;1.99;90.03
8705;BME280;4389;41.932;25.904;2024-01-30T03:32:27;-16120.28;;;1.96;90.01
8705;BME280;4389;41.932;25.904;2024-01-30T03:34:54;-16120.28;;;1.96;90.15
8705;BME280;4389;41.932;25.904;2024-01-30T03:37:21;-16120.28;;;1.96;90.82
8705;BME280;4389;41.932;25.904;2024-01-30T03:39:47;-16120.84;;;1.98;90.27
8705;BME280;4389;41.932;25.904;2024-01-30T03:42:14;-16121.38;;;2.00;90.63
8705;BME280;4389;41.932;25.904;2024-01-30T03:44:41;-16122.44;;;2.04;90.12
8705;BME280;4389;41.932;25.904;2024-01-30T03:47:10;-16122.28;;;2.04;90.32
8705;BME280;4389;41.932;25.904;2024-01-30T03:49:37;-16123.63;;;2.09;90.34
8705;BME280;4389;41.932;25.904;2024-01-30T03:52:04;-16122.44;;;2.04;90.64
8705;BME280;4389;41.932;25.904;2024-01-30T03:54:31;-16121.91;;;2.02;90.52
8705;BME280;4389;41.932;25.904;2024-01-30T03:56:58;-16124.16;;;2.11;90.41
8705;BME280;4389;41.932;25.904;2024-01-30T03:59:24;-16126.56;;;2.20;89.56
8705;BME280;4389;41.932;25.904;2024-01-30T04:01:51;-16129.09;;;2.29;89.21
8705;BME280;4389;41.932;25.904;2024-01-30T04:04:19;-16129.09;;;2.29;89.12
8705;BME280;4389;41.932;25.904;2024-01-30T04:06:47;-16129.09;;;2.29;89.07
8705;BME280;4389;41.932;25.904;2024-01-30T04:09:13;-16129.91;;;2.32;89.05
8705;BME280;4389;41.932;25.904;2024-01-30T04:11:41;-16128.97;;;2.29;89.26
8705;BME280;4389;41.932;25.904;2024-01-30T04:14:08;-16128.31;;;2.26;89.61
8705;BME280;4389;41.932;25.904;2024-01-30T04:16:35;-16128.72;;;2.28;89.83
8705;BME280;4389;41.932;25.904;2024-01-30T04:19:02;-16128.03;;;2.25;89.94
8705;BME280;4389;41.932;25.904;2024-01-30T04:21:31;-16129.25;;;2.30;90.32
8705;BME280;4389;41.932;25.904;2024-01-30T04:23:58;-16128.56;;;2.27;90.51
8705;BME280;4389;41.932;25.904;2024-01-30T04:26:24;-16129.09;;;2.29;90.48
8705;BME280;4389;41.932;25.904;2024-01-30T04:28:51;-16129.25;;;2.30;90.30
8705;BME280;4389;41.932;25.904;2024-01-30T04:31:18;-16130.44;;;2.34;90.13
8705;BME280;4389;41.932;25.904;2024-01-30T04:33:45;-16129.50;;;2.31;90.21
8705;BME280;4389;41.932;25.904;2024-01-30T04:36:12;-16128.97;;;2.29;90.19
8705;BME280;4389;41.932;25.904;2024-01-30T04:38:40;-16129.91;;;2.32;90.30
8705;BME280;4389;41.932;25.904;2024-01-30T04:41:07;-16129.63;;;2.31;90.18
8705;BME280;4389;41.932;25.904;2024-01-30T04:43:34;-16129.09;;;2.29;90.34
8705;BME280;4389;41.932;25.904;2024-01-30T04:46:02;-16130.31;;;2.34;90.24
8705;BME280;4389;41.932;25.904;2024-01-30T04:48:29;-16130.72;;;2.35;90.10
8705;BME280;4389;41.932;25.904;2024-01-30T04:50:58;-16132.16;;;2.41;90.12
8705;BME280;4389;41.932;25.904;2024-01-30T04:53:29;-16132.84;;;2.43;89.67
8705;BME280;4389;41.932;25.904;2024-01-30T04:55:58;-16132.03;;;2.40;89.77
8705;BME280;4389;41.932;25.904;2024-01-30T04:58:26;-16133.25;;;2.45;89.67
8705;BME280;4389;41.932;25.904;2024-01-30T05:00:53;-16133.78;;;2.47;89.35
8705;BME280;4389;41.932;25.904;2024-01-30T05:03:20;-16136.56;;;2.57;88.57
8705;BME280;4389;41.932;25.904;2024-01-30T05:05:48;-16139.13;;;2.67;87.99
8705;BME280;4389;41.932;25.904;2024-01-30T05:08:15;-16141.38;;;2.75;87.21
8705;BME280;4389;41.932;25.904;2024-01-30T05:10:42;-16141.25;;;2.75;86.09
8705;BME280;4389;41.932;25.904;2024-01-30T05:13:10;-16143.38;;;2.83;85.84
8705;BME280;4389;41.932;25.904;2024-01-30T05:15:39;-16144.84;;;2.88;85.17
8705;BME280;4389;41.932;25.904;2024-01-30T05:18:06;-16146.19;;;2.93;84.17
8705;BME280;4389;41.932;25.904;2024-01-30T05:20:33;-16147.53;;;2.98;83.39
8705;BME280;4389;41.932;25.904;2024-01-30T05:23:00;-16147.13;;;2.97;83.33
8705;BME280;4389;41.932;25.904;2024-01-30T05:25:27;-16148.59;;;3.02;83.06
8705;BME280;4389;41.932;25.904;2024-01-30T05:27:54;-16149.38;;;3.05;82.65
8705;BME280;4389;41.932;25.904;2024-01-30T05:30:22;-16150.59;;;3.10;82.28
8705;BME280;4389;41.932;25.904;2024-01-30T05:32:49;-16151.13;;;3.12;82.01
8705;BME280;4389;41.932;25.904;2024-01-30T05:35:16;-16149.66;;;3.06;82.23
8705;BME280;4389;41.932;25.904;2024-01-30T05:37:45;-16149.38;;;3.05;82.23
8705;BME280;4389;41.932;25.904;2024-01-30T05:40:12;-16149.53;;;3.06;82.17
8705;BME280;4389;41.932;25.904;2024-01-30T05:42:39;-16151.25;;;3.12;81.73
8705;BME280;4389;41.932;25.904;2024-01-30T05:45:06;-16153.25;;;3.20;81.96
8705;BME280;4389;41.932;25.904;2024-01-30T05:47:35;-16151.00;;;3.11;82.70
8705;BME280;4389;41.932;25.904;2024-01-30T05:50:02;-16150.47;;;3.09;82.37
8705;BME280;4389;41.932;25.904;2024-01-30T05:52:29;-16150.72;;;3.10;82.93
8705;BME280;4389;41.932;25.904;2024-01-30T05:54:56;-16152.06;;;3.15;82.54
8705;BME280;4389;41.932;25.904;2024-01-30T05:57:22;-16151.78;;;3.14;81.39
8705;BME280;4389;41.932;25.904;2024-01-30T05:59:49;-16152.84;;;3.18;81.86
8705;BME280;4389;41.932;25.904;2024-01-30T06:02:17;-16152.06;;;3.15;82.50
8705;BME280;4389;41.932;25.904;2024-01-30T06:04:46;-16152.06;;;3.15;82.82
8705;BME280;4389;41.932;25.904;2024-01-30T06:07:13;-16151.13;;;3.12;83.29
8705;BME280;4389;41.932;25.904;2024-01-30T06:09:40;-16150.47;;;3.09;83.49
8705;BME280;4389;41.932;25.904;2024-01-30T06:12:07;-16150.06;;;3.08;83.40
8705;BME280;4389;41.932;25.904;2024-01-30T06:14:34;-16151.00;;;3.11;83.81
8705;BME280;4389;41.932;25.904;2024-01-30T06:17:01;-16150.59;;;3.10;83.95
8705;BME280;4389;41.932;25.904;2024-01-30T06:19:28;-16148.31;;;3.01;84.66
8705;BME280;4389;41.932;25.904;2024-01-30T06:21:56;-16151.25;;;3.12;85.11
8705;BME280;4389;41.932;25.904;2024-01-30T06:24:23;-16149.38;;;3.05;86.13
8705;BME280;4389;41.932;25.904;2024-01-30T06:26:50;-16148.44;;;3.02;86.40
8705;BME280;4389;41.932;25.904;2024-01-30T06:29:17;-16148.44;;;3.02;86.66
8705;BME280;4389;41.932;25.904;2024-01-30T06:31:43;-16148.31;;;3.01;86.83
8705;BME280;4389;41.932;25.904;2024-01-30T06:34:11;-16149.25;;;3.05;86.98
8705;BME280;4389;41.932;25.904;2024-01-30T06:36:38;-16148.19;;;3.01;87.19
8705;BME280;4389;41.932;25.904;2024-01-30T06:39:07;-16151.25;;;3.12;87.71
8705;BME280;4389;41.932;25.904;2024-01-30T06:41:34;-16153.38;;;3.20;87.08
8705;BME280;4389;41.932;25.904;2024-01-30T06:44:02;-16150.72;;;3.10;87.34
8705;BME280;4389;41.932;25.904;2024-01-30T06:46:29;-16151.25;;;3.12;87.30
8705;BME280;4389;41.932;25.904;2024-01-30T06:48:56;-16151.00;;;3.11;87.32
8705;BME280;4389;41.932;25.904;2024-01-30T06:51:23;-16149.38;;;3.05;87.72
8705;BME280;4389;41.932;25.904;2024-01-30T06:53:50;-16151.00;;;3.11;87.51
8705;BME280;4389;41.932;25.904;2024-01-30T06:56:18;-16152.59;;;3.17;87.62
8705;BME280;4389;41.932;25.904;2024-01-30T06:58:46;-16152.06;;;3.15;87.34
8705;BME280;4389;41.932;25.904;2024-01-30T07:01:14;-16154.72;;;3.25;86.64
8705;BME280;4389;41.932;25.904;2024-01-30T07:03:41;-16153.13;;;3.19;86.78
8705;BME280;4389;41.932;25.904;2024-01-30T07:06:09;-16154.47;;;3.24;86.33
8705;BME280;4389;41.932;25.904;2024-01-30T07:08:36;-16152.84;;;3.18;86.35
8705;BME280;4389;41.932;25.904;2024-01-30T07:11:04;-16153.38;;;3.20;86.90
8705;BME280;4389;41.932;25.904;2024-01-30T07:13:32;-16154.72;;;3.25;85.81
8705;BME280;4389;41.932;25.904;2024-01-30T07:15:59;-16155.00;;;3.26;85.90
8705;BME280;4389;41.932;25.904;2024-01-30T07:18:26;-16154.72;;;3.25;85.29
8705;BME280;4389;41.932;25.904;2024-01-30T07:20:53;-16155.00;;;3.26;84.28
8705;BME280;4389;41.932;25.904;2024-01-30T07:23:20;-16155.38;;;3.28;84.40
8705;BME280;4389;41.932;25.904;2024-01-30T07:25:50;-16156.59;;;3.32;84.78
8705;BME280;4389;41.932;25.904;2024-01-30T07:28:19;-16157.25;;;3.35;83.88
8705;BME280;4389;41.932;25.904;2024-01-30T07:30:48;-16155.78;;;3.29;83.65
8705;BME280;4389;41.932;25.904;2024-01-30T07:33:16;-16156.06;;;3.30;83.20
8705;BME280;4389;41.932;25.904;2024-01-30T07:35:43;-16159.00;;;3.41;82.35
8705;BME280;4389;41.932;25.904;2024-01-30T07:38:10;-16160.06;;;3.45;83.30
8705;BME280;4389;41.932;25.904;2024-01-30T07:40:36;-16159.25;;;3.42;83.43
8705;BME280;4389;41.932;25.904;2024-01-30T07:43:03;-16158.19;;;3.38;83.02
8705;BME280;4389;41.932;25.904;2024-01-30T07:45:31;-16157.66;;;3.36;82.61
8705;BME280;4389;41.932;25.904;2024-01-30T07:48:00;-16161.13;;;3.49;82.13
8705;BME280;4389;41.932;25.904;2024-01-30T07:50:27;-16163.00;;;3.56;82.59
8705;BME280;4389;41.932;25.904;2024-01-30T07:52:55;-16159.78;;;3.44;82.37
8705;BME280;4389;41.932;25.904;2024-01-30T07:55:22;-16160.06;;;3.45;82.05
8705;BME280;4389;41.932;25.904;2024-01-30T07:57:51;-16161.13;;;3.49;81.95
8705;BME280;4389;41.932;25.904;2024-01-30T08:00:18;-16160.59;;;3.47;82.31
8705;BME280;4389;41.932;25.904;2024-01-30T08:02:45;-16163.53;;;3.58;80.91
8705;BME280;4389;41.932;25.904;2024-01-30T08:05:14;-16162.06;;;3.53;82.11
8705;BME280;4389;41.932;25.904;2024-01-30T08:07:41;-16160.31;;;3.46;82.03
8705;BME280;4389;41.932;25.904;2024-01-30T08:10:08;-16161.13;;;3.49;81.27
8705;BME280;4389;41.932;25.904;2024-01-30T08:12:35;-16162.47;;;3.54;81.29
8705;BME280;4389;41.932;25.904;2024-01-30T08:15:03;-16163.13;;;3.57;80.08
8705;BME280;4389;41.932;25.904;2024-01-30T08:17:30;-16162.31;;;3.54;80.35
8705;BME280;4389;41.932;25.904;2024-01-30T08:19:57;-16163.78;;;3.59;80.16
8705;BME280;4389;41.932;25.904;2024-01-30T08:22:25;-16163.00;;;3.56;79.39
8705;BME280;4389;41.932;25.904;2024-01-30T08:24:52;-16164.84;;;3.63;78.59
8705;BME280;4389;41.932;25.904;2024-01-30T08:27:19;-16163.53;;;3.58;79.87
8705;BME280;4389;41.932;25.904;2024-01-30T08:29:46;-16163.66;;;3.59;80.36
8705;BME280;4389;41.932;25.904;2024-01-30T08:32:13;-16164.59;;;3.62;79.54
8705;BME280;4389;41.932;25.904;2024-01-30T08:34:40;-16165.94;;;3.67;78.01
8705;BME280;4389;41.932;25.904;2024-01-30T08:37:07;-16166.31;;;3.69;78.75
8705;BME280;4389;41.932;25.904;2024-01-30T08:39:35;-16166.06;;;3.68;78.32
8705;BME280;4389;41.932;25.904;2024-01-30T08:42:02;-16167.00;;;3.71;76.94
8705;BME280;4389;41.932;25.904;2024-01-30T08:44:29;-16168.06;;;3.75;76.81
8705;BME280;4389;41.932;25.904;2024-01-30T08:46:56;-16171.53;;;3.88;76.71
8705;BME280;4389;41.932;25.904;2024-01-30T08:49:22;-16171.00;;;3.86;76.28
8705;BME280;4389;41.932;25.904;2024-01-30T08:51:48;-16171.66;;;3.89;76.01
8705;BME280;4389;41.932;25.904;2024-01-30T08:54:15;-16172.88;;;3.93;75.65
8705;BME280;4389;41.932;25.904;2024-01-30T08:56:44;-16176.88;;;4.08;75.59
8705;BME280;4389;41.932;25.904;2024-01-30T08:59:11;-16177.13;;;4.09;74.66
8705;BME280;4389;41.932;25.904;2024-01-30T09:01:37;-16177.66;;;4.11;74.46
8705;BME280;4389;41.932;25.904;2024-01-30T09:04:04;-16176.88;;;4.08;74.45
8705;BME280;4389;41.932;25.904;2024-01-30T09:06:31;-16177.78;;;4.12;73.23
8705;BME280;4389;41.932;25.904;2024-01-30T09:08:58;-16177.13;;;4.09;74.37
8705;BME280;4389;41.932;25.904;2024-01-30T09:11:25;-16181.13;;;4.24;73.51
8705;BME280;4389;41.932;25.904;2024-01-30T09:13:53;-16183.81;;;4.34;73.25
8705;BME280;4389;41.932;25.904;2024-01-30T09:16:20;-16184.06;;;4.35;72.99
8705;BME280;4389;41.932;25.904;2024-01-30T09:18:47;-16185.94;;;4.42;73.01
8705;BME280;4389;41.932;25.904;2024-01-30T09:21:14;-16187.41;;;4.47;72.22
8705;BME280;4389;41.932;25.904;2024-01-30T09:23:40;-16188.06;;;4.50;72.71
8705;BME280;4389;41.932;25.904;2024-01-30T09:26:07;-16187.94;;;4.49;72.59
8705;BME280;4389;41.932;25.904;2024-01-30T09:28:34;-16188.19;;;4.50;71.66
8705;BME280;4389;41.932;25.904;2024-01-30T09:31:03;-16189.66;;;4.56;72.32
8705;BME280;4389;41.932;25.904;2024-01-30T09:33:30;-16191.00;;;4.61;72.37
8705;BME280;4389;41.932;25.904;2024-01-30T09:35:57;-16185.66;;;4.41;73.08
8705;BME280;4389;41.932;25.904;2024-01-30T09:38:24;-16188.88;;;4.53;72.81
8705;BME280;4389;41.932;25.904;2024-01-30T09:40:55;-16188.88;;;4.53;71.52
8705;BME280;4389;41.932;25.904;2024-01-30T09:43:23;-16185.81;;;4.41;72.59
8705;BME280;4389;41.932;25.904;2024-01-30T09:45:52;-16184.47;;;4.36;72.05
8705;BME280;4389;41.932;25.904;2024-01-30T09:48:24;-16187.81;;;4.49;72.00
8705;BME280;4389;41.932;25.904;2024-01-30T09:50:52;-16188.06;;;4.50;70.27
8705;BME280;4389;41.932;25.904;2024-01-30T09:53:20;-16189.41;;;4.55;70.84
8705;BME280;4389;41.932;25.904;2024-01-30T09:55:50;-16188.34;;;4.51;71.45
8705;BME280;4389;41.932;25.904;2024-01-30T09:58:17;-16191.53;;;4.63;70.30
8705;BME280;4389;41.932;25.904;2024-01-30T10:00:45;-16190.88;;;4.60;70.33
8705;BME280;4389;41.932;25.904;2024-01-30T10:03:13;-16190.59;;;4.59;71.00
8705;BME280;4389;41.932;25.904;2024-01-30T10:05:46;-16191.41;;;4.62;70.77
8705;BME280;4389;41.932;25.904;2024-01-30T10:08:17;-16192.59;;;4.67;69.13
8705;BME280;4389;41.932;25.904;2024-01-30T10:10:46;-16193.13;;;4.69;69.24
8705;BME280;4389;41.932;25.904;2024-01-30T10:13:14;-16192.88;;;4.68;69.49
8705;BME280;4389;41.932;25.904;2024-01-30T10:15:41;-16191.53;;;4.63;69.23
8705;BME280;4389;41.932;25.904;2024-01-30T10:18:08;-16189.53;;;4.55;70.18
8705;BME280;4389;41.932;25.904;2024-01-30T10:20:36;-16188.06;;;4.50;69.78
8705;BME280;4389;41.932;25.904;2024-01-30T10:23:05;-16190.72;;;4.60;70.13
8705;BME280;4389;41.932;25.904;2024-01-30T10:25:33;-16191.00;;;4.61;70.47
8705;BME280;4389;41.932;25.904;2024-01-30T10:28:00;-16189.81;;;4.56;70.01
8705;BME280;4389;41.932;25.904;2024-01-30T10:30:28;-16190.72;;;4.60;69.27
8705;BME280;4389;41.932;25.904;2024-01-30T10:32:55;-16191.13;;;4.61;69.23
8705;BME280;4389;41.932;25.904;2024-01-30T10:35:22;-16191.66;;;4.63;67.73
8705;BME280;4389;41.932;25.904;2024-01-30T10:37:49;-16191.94;;;4.64;69.24
8705;BME280;4389;41.932;25.904;2024-01-30T10:40:21;-16194.19;;;4.73;69.76
8705;BME280;4389;41.932;25.904;2024-01-30T10:42:53;-16197.00;;;4.83;69.21
8705;BME280;4389;41.932;25.904;2024-01-30T10:45:22;-16199.41;;;4.92;69.48
8705;BME280;4389;41.932;25.904;2024-01-30T10:47:50;-16202.19;;;5.03;68.19
8705;BME280;4389;41.932;25.904;2024-01-30T10:50:20;-16202.34;;;5.03;68.33
8705;BME280;4389;41.932;25.904;2024-01-30T10:52:47;-16199.00;;;4.91;68.18
8705;BME280;4389;41.932;25.904;2024-01-30T10:55:16;-16199.25;;;4.92;67.56
8705;BME280;4389;41.932;25.904;2024-01-30T10:57:46;-16200.88;;;4.98;67.98
8705;BME280;4389;41.932;25.904;2024-01-30T11:00:14;-16199.00;;;4.91;68.22
8705;BME280;4389;41.932;25.904;2024-01-30T11:02:44;-16198.06;;;4.87;67.84
8705;BME280;4389;41.932;25.904;2024-01-30T11:05:12;-16199.53;;;4.93;68.61
8705;BME280;4389;41.932;25.904;2024-01-30T11:07:41;-16204.19;;;5.10;66.86
8705;BME280;4389;41.932;25.904;2024-01-30T11:10:09;-16205.41;;;5.15;67.47
8705;BME280;4389;41.932;25.904;2024-01-30T11:12:40;-16202.72;;;5.05;67.39
8705;BME280;4389;41.932;25.904;2024-01-30T11:15:13;-16202.72;;;5.05;66.74
8705;BME280;4389;41.932;25.904;2024-01-30T11:17:45;-16202.72;;;5.05;66.10
8705;BME280;4389;41.932;25.904;2024-01-30T11:20:15;-16200.88;;;4.98;67.13
8705;BME280;4389;41.932;25.904;2024-01-30T11:22:44;-16201.81;;;5.01;68.21
8705;BME280;4389;41.932;25.904;2024-01-30T11:25:13;-16204.34;;;5.11;68.36
8705;BME280;4389;41.932;25.904;2024-01-30T11:27:42;-16203.13;;;5.06;68.36
8705;BME280;4389;41.932;25.904;2024-01-30T11:30:20;-16206.06;;;5.17;68.31
8705;BME280;4389;41.932;25.904;2024-01-30T11:33:01;-16207.00;;;5.21;67.06
8705;BME280;4389;41.932;25.904;2024-01-30T11:35:32;-16207.53;;;5.23;67.21
8705;BME280;4389;41.932;25.904;2024-01-30T11:38:00;-16202.72;;;5.05;66.73
8705;BME280;4389;41.932;25.904;2024-01-30T11:40:29;-16205.94;;;5.17;66.84
8705;BME280;4389;41.932;25.904;2024-01-30T11:42:59;-16203.41;;;5.07;66.55
8705;BME280;4389;41.932;25.904;2024-01-30T11:45:30;-16203.00;;;5.06;68.09
8705;BME280;4389;41.932;25.904;2024-01-30T11:47:57;-16203.25;;;5.07;67.55
8705;BME280;4389;41.932;25.904;2024-01-30T11:50:25;-16204.34;;;5.11;67.28
8705;BME280;4389;41.932;25.904;2024-01-30T11:52:54;-16201.94;;;5.02;67.89
8705;BME280;4389;41.932;25.904;2024-01-30T11:55:20;-16200.59;;;4.97;67.74
8705;BME280;4389;41.932;25.904;2024-01-30T11:57:47;-16203.81;;;5.09;66.75
8705;BME280;4389;41.932;25.904;2024-01-30T12:00:15;-16204.06;;;5.10;66.28
8705;BME280;4389;41.932;25.904;2024-01-30T12:02:44;-16205.94;;;5.17;66.66
8705;BME280;4389;41.932;25.904;2024-01-30T12:05:11;-16206.06;;;5.17;64.98
8705;BME280;4389;41.932;25.904;2024-01-30T12:07:38;-16208.06;;;5.25;66.58
8705;BME280;4389;41.932;25.904;2024-01-30T12:10:08;-16208.59;;;5.27;66.83
8705;BME280;4389;41.932;25.904;2024-01-30T12:12:35;-16209.41;;;5.30;64.99
8705;BME280;4389;41.932;25.904;2024-01-30T12:15:03;-16202.59;;;5.04;66.27
8705;BME280;4389;41.932;25.904;2024-01-30T12:17:32;-16199.53;;;4.93;67.06
8705;BME280;4389;41.932;25.904;2024-01-30T12:20:05;-16197.13;;;4.84;67.98
8705;BME280;4389;41.932;25.904;2024-01-30T12:22:35;-16194.47;;;4.74;67.73
8705;BME280;4389;41.932;25.904;2024-01-30T12:25:04;-16192.06;;;4.65;67.72
8705;BME280;4389;41.932;25.904;2024-01-30T12:27:32;-16192.06;;;4.65;67.90
8705;BME280;4389;41.932;25.904;2024-01-30T12:29:59;-16190.72;;;4.60;67.36
8705;BME280;4389;41.932;25.904;2024-01-30T12:32:26;-16191.94;;;4.64;68.22
8705;BME280;4389;41.932;25.904;2024-01-30T12:34:55;-16191.00;;;4.61;67.86
8705;BME280;4389;41.932;25.904;2024-01-30T12:37:24;-16192.34;;;4.66;68.24
8705;BME280;4389;41.932;25.904;2024-01-30T12:39:52;-16193.41;;;4.70;68.68
8705;BME280;4389;41.932;25.904;2024-01-30T12:42:20;-16194.19;;;4.73;67.76
8705;BME280;4389;41.932;25.904;2024-01-30T12:44:48;-16195.78;;;4.79;67.76
8705;BME280;4389;41.932;25.904;2024-01-30T12:47:18;-16196.72;;;4.82;66.77
8705;BME280;4389;41.932;25.904;2024-01-30T12:49:48;-16197.41;;;4.85;67.29
8705;BME280;4389;41.932;25.904;2024-01-30T12:52:20;-16198.59;;;4.89;67.55
8705;BME280;4389;41.932;25.904;2024-01-30T12:54:48;-16198.19;;;4.88;66.44
8705;BME280;4389;41.932;25.904;2024-01-30T12:57:16;-16197.28;;;4.84;67.08
8705;BME280;4389;41.932;25.904;2024-01-30T12:59:43;-16197.41;;;4.85;67.79
8705;BME280;4389;41.932;25.904;2024-01-30T13:02:10;-16196.34;;;4.81;68.48
8705;BME280;4389;41.932;25.904;2024-01-30T13:04:38;-16197.94;;;4.87;67.07
8705;BME280;4389;41.932;25.904;2024-01-30T13:07:06;-16197.13;;;4.84;67.68
8705;BME280;4389;41.932;25.904;2024-01-30T13:09:33;-16193.66;;;4.71;68.10
8705;BME280;4389;41.932;25.904;2024-01-30T13:12:01;-16192.47;;;4.66;68.09